Time;durP1;ratioP1;P1;durP2;ratioP2;P2;SDS_P1;SDS_P2;PMS_P1;PMS_P2;Temp;Humidity;BMP_temperature;BMP_pressure;BME280_temperature;BME280_humidity;BME280_pressure;Samples;Min_cycle;Max_cycle;Signal;HPM_P1;HPM_P2
2022/01/28 00:00:36;;;;;;;2.80;2.60;;;;;;;16.42;41.94;97974.81;6334613;22;20245;-80
2022/01/28 00:03:06;;;;;;;2.77;2.57;;;;;;;18.51;41.85;98262.59;6335255;22;20173;-79
2022/01/28 00:05:36;;;;;;;3.60;3.10;;;;;;;11.43;41.96;97114.56;6335673;22;20200;-80
2022/01/28 00:08:09;;;;;;;3.20;2.83;;;;;;;12.05;41.81;97219.13;6334078;22;20211;-79
2022/01/28 00:10:40;;;;;;;3.37;3.07;;;;;;;11.39;42.07;97222.44;6309188;22;20854;-82
2022/01/28 00:13:23;;;;;;;3.47;3.17;;;;;;;7.70;41.24;96542.69;6287769;22;20158;-82
2022/01/28 00:38:10;;;;;;;2.87;2.67;;;;;;;18.23;41.62;98302.63;6288697;22;20229;-83
2022/01/28 01:21:14;;;;;;;3.00;2.60;;;;;;;17.81;41.78;98248.59;6290617;22;20707;-82
2022/01/28 01:23:49;;;;;;;3.07;2.50;;;;;;;18.39;41.70;98349.38;6287088;22;20163;-82
2022/01/28 01:26:16;;;;;;;2.53;2.33;;;;;;;17.82;41.19;98244.38;6256944;22;20217;-91
2022/01/28 01:54:00;;;;;;;2.63;2.43;;;;;;;18.57;41.37;98352.91;6070386;23;20709;-82
2022/01/28 01:56:27;;;;;;;2.83;2.63;;;;;;;18.35;41.05;98316.00;6048711;23;20833;-82
2022/01/28 01:58:57;;;;;;;2.70;2.50;;;;;;;18.27;40.92;98306.25;6095823;23;20246;-83
2022/01/28 02:01:24;;;;;;;2.77;2.50;;;;;;;18.37;40.87;98325.50;6118593;23;20211;-82
2022/01/28 02:03:50;;;;;;;2.40;2.20;;;;;;;18.08;41.09;98287.38;6094911;23;20175;-83
2022/01/28 02:06:18;;;;;;;3.00;2.50;;;;;;;18.44;41.08;98352.16;6093298;23;20596;-83
2022/01/28 02:08:45;;;;;;;2.70;2.50;;;;;;;18.46;41.26;98345.47;6094243;23;20206;-83
2022/01/28 02:11:11;;;;;;;2.80;2.53;;;;;;;18.48;40.83;98362.59;6094622;23;20211;-82
2022/01/28 02:13:39;;;;;;;2.60;2.40;;;;;;;18.49;40.87;98360.91;6118087;23;20180;-82
2022/01/28 02:16:06;;;;;;;2.80;2.60;;;;;;;18.35;40.79;98344.00;6121210;23;20207;-82
2022/01/28 02:18:33;;;;;;;2.67;2.47;;;;;;;18.58;41.23;98417.41;6095441;23;20770;-83
2022/01/28 02:21:07;;;;;;;2.80;2.60;;;;;;;18.41;41.09;98370.66;6120251;23;20209;-83
2022/01/28 02:23:34;;;;;;;2.67;2.43;;;;;;;18.44;40.95;98368.28;6120164;23;20187;-83
2022/01/28 02:26:01;;;;;;;3.67;2.73;;;;;;;18.24;40.78;98339.16;6094990;23;20241;-82
2022/01/28 02:28:31;;;;;;;2.63;2.43;;;;;;;18.23;40.74;98338.22;6094881;23;20540;-83
2022/01/28 02:30:58;;;;;;;2.70;2.50;;;;;;;18.47;40.93;98375.22;6094712;23;20195;-82
2022/01/28 02:33:26;;;;;;;3.53;2.60;;;;;;;17.83;41.09;98256.31;6095335;23;20190;-82
2022/01/28 02:35:53;;;;;;;2.53;2.30;;;;;;;18.27;40.88;98343.56;6095974;23;20179;-83
2022/01/28 02:38:22;;;;;;;2.70;2.50;;;;;;;18.45;40.91;98379.34;6119426;23;20671;-84
2022/01/28 02:40:54;;;;;;;2.50;2.30;;;;;;;18.36;41.13;98364.44;6095245;23;20639;-83
2022/01/28 02:43:45;;;;;;;2.70;2.50;;;;;;;18.27;40.74;98348.66;6118709;23;20219;-83
2022/01/28 02:46:14;;;;;;;2.63;2.43;;;;;;;18.18;40.83;98350.69;6099618;23;20757;-84
2022/01/28 02:48:52;;;;;;;3.37;2.50;;;;;;;18.36;40.95;98374.59;6098689;23;20190;-83
2022/01/28 02:51:20;;;;;;;2.50;2.30;;;;;;;18.38;40.51;98385.75;6124582;23;20189;-82
2022/01/28 02:56:20;;;;;;;2.47;2.27;;;;;;;18.44;40.73;98398.81;6149025;23;20158;-82
2022/01/28 02:58:47;;;;;;;2.50;2.30;;;;;;;18.18;41.02;98353.25;6149233;23;20189;-82
2022/01/28 03:01:15;;;;;;;2.90;2.50;;;;;;;18.27;41.11;98368.13;6124350;23;20177;-83
2022/01/28 03:03:43;;;;;;;3.17;2.67;;;;;;;18.20;41.24;98365.25;6124341;23;20182;-84
2022/01/28 03:06:10;;;;;;;3.37;2.50;;;;;;;18.42;41.02;98409.72;6148556;23;20238;-82
2022/01/28 03:08:37;;;;;;;3.77;2.57;;;;;;;18.15;40.71;98365.78;6123995;23;20206;-83
2022/01/28 03:16:32;;;;;;;2.63;2.43;;;;;;;18.07;40.73;98380.63;6148962;23;20225;-83
2022/01/28 03:19:17;;;;;;;3.37;3.03;;;;;;;18.11;40.60;98361.31;6124822;23;20244;-82
2022/01/28 03:21:53;;;;;;;3.00;2.70;;;;;;;18.30;41.04;98407.34;6149271;23;20205;-82
2022/01/28 03:24:21;;;;;;;3.40;2.90;;;;;;;18.21;40.88;98394.97;6148175;23;20193;-83
2022/01/28 03:59:04;;;;;;;2.90;2.70;;;;;;;16.94;41.22;98241.00;6282944;22;20213;-81
2022/01/28 04:01:35;;;;;;;2.67;2.47;;;;;;;18.11;40.96;98443.59;6255670;22;20206;-82
2022/01/28 04:12:21;;;;;;;2.93;2.60;;;;;;;17.95;40.83;98420.59;6312160;22;20182;-82
2022/01/28 04:15:07;;;;;;;3.00;2.77;;;;;;;18.38;40.83;98491.78;6307379;22;20217;-82
2022/01/28 04:17:34;;;;;;;2.43;2.23;;;;;;;18.12;40.81;98447.03;6307724;22;20251;-82
2022/01/28 04:20:01;;;;;;;3.53;2.47;;;;;;;17.55;40.57;98350.47;6281808;22;20185;-82
2022/01/28 04:22:27;;;;;;;6.63;2.87;;;;;;;18.12;40.55;98452.13;6334063;22;20223;-82
2022/01/28 04:24:54;;;;;;;3.83;3.07;;;;;;;18.27;40.43;98477.53;6256440;22;20202;-82
2022/01/28 04:27:21;;;;;;;2.60;2.40;;;;;;;18.33;40.56;98499.13;6255574;22;20229;-82
2022/01/28 04:29:47;;;;;;;3.13;2.50;;;;;;;18.25;40.38;98487.63;6281558;22;20178;-82
2022/01/28 04:32:14;;;;;;;3.20;2.90;;;;;;;18.28;40.89;98492.91;6306976;22;20174;-82
2022/01/28 04:34:41;;;;;;;3.07;2.60;;;;;;;18.25;40.82;98497.81;6256047;22;20178;-83
2022/01/28 04:42:18;;;;;;;3.20;2.90;;;;;;;18.07;41.00;98472.19;6284172;22;20557;-83
2022/01/28 04:45:08;;;;;;;2.90;2.70;;;;;;;17.89;41.05;98440.59;6285975;22;20190;-82
2022/01/28 05:27:42;;;;;;;2.73;2.53;;;;;;;17.98;41.02;98517.44;6331543;22;20237;-81
2022/01/28 05:30:09;;;;;;;2.70;2.50;;;;;;;18.00;40.70;98517.53;6284125;22;20185;-82
2022/01/28 05:32:38;;;;;;;3.20;2.60;;;;;;;18.29;40.86;98567.56;6279768;22;20210;-82
2022/01/28 05:35:06;;;;;;;4.03;2.53;;;;;;;18.14;41.05;98557.34;6332083;22;20197;-83
2022/01/28 05:37:33;;;;;;;3.17;2.47;;;;;;;18.31;41.01;98586.34;6280801;22;20218;-82
2022/01/28 05:39:59;;;;;;;3.00;2.70;;;;;;;18.21;41.14;98565.44;6334161;22;20204;-83
2022/01/28 05:42:26;;;;;;;2.90;2.63;;;;;;;18.00;40.87;98538.75;6280701;22;20216;-82
2022/01/28 05:44:52;;;;;;;3.53;2.87;;;;;;;18.04;40.44;98555.97;6279963;22;20209;-82
2022/01/28 05:47:19;;;;;;;3.37;2.90;;;;;;;18.21;40.70;98587.47;6306449;22;20304;-83
2022/01/28 05:49:46;;;;;;;3.43;3.00;;;;;;;18.09;40.52;98574.91;6281669;22;20543;-82
2022/01/28 05:52:13;;;;;;;3.97;2.80;;;;;;;18.22;40.70;98594.31;6305841;22;20787;-82
2022/01/28 05:54:40;;;;;;;3.23;2.93;;;;;;;17.80;40.60;98518.88;6280964;22;20198;-86
2022/01/28 05:57:06;;;;;;;3.20;2.87;;;;;;;18.04;40.48;98583.94;6309428;22;20697;-86
2022/01/28 05:59:33;;;;;;;4.17;3.47;;;;;;;17.99;40.38;98561.53;6282845;22;20224;-85
2022/01/28 06:02:00;;;;;;;3.57;3.27;;;;;;;18.05;40.07;98583.16;6282559;22;20277;-83
2022/01/28 06:04:28;;;;;;;4.00;3.10;;;;;;;18.21;40.61;98607.84;6304385;22;20228;-83
2022/01/28 06:06:55;;;;;;;3.40;3.10;;;;;;;18.02;40.48;98577.88;6306343;22;20242;-83
2022/01/28 06:09:21;;;;;;;4.47;3.13;;;;;;;18.02;40.12;98584.63;6305756;22;20178;-82
2022/01/28 06:11:48;;;;;;;3.53;3.03;;;;;;;18.29;40.47;98631.19;6303065;22;20575;-82
2022/01/28 06:14:14;;;;;;;3.43;3.00;;;;;;;18.15;39.97;98612.56;6331532;22;20201;-82
2022/01/28 06:16:41;;;;;;;3.43;3.07;;;;;;;18.16;40.25;98616.84;6306821;22;20273;-81
2022/01/28 06:19:07;;;;;;;3.17;2.87;;;;;;;18.10;40.33;98607.19;6304983;22;20538;-82
2022/01/28 06:21:34;;;;;;;4.30;3.10;;;;;;;17.94;40.18;98580.72;6331093;22;20270;-81
2022/01/28 06:24:01;;;;;;;4.53;3.20;;;;;;;18.03;40.36;98601.66;6304213;22;20194;-82
2022/01/28 06:26:27;;;;;;;3.57;2.83;;;;;;;17.99;39.82;98599.69;6305554;22;20277;-82
2022/01/28 06:28:54;;;;;;;5.17;3.50;;;;;;;18.05;39.75;98613.66;6305350;22;20817;-82
2022/01/28 06:31:20;;;;;;;4.33;3.37;;;;;;;18.29;39.65;98661.72;6305516;22;20193;-82
2022/01/28 06:33:48;;;;;;;3.50;3.07;;;;;;;18.09;39.61;98630.84;6331915;22;20178;-81
2022/01/28 06:36:15;;;;;;;3.43;2.90;;;;;;;18.07;39.43;98636.66;6332291;22;20158;-82
2022/01/28 06:38:42;;;;;;;3.53;3.20;;;;;;;18.04;39.69;98623.75;6279710;22;20181;-82
2022/01/28 06:41:08;;;;;;;4.10;3.40;;;;;;;18.03;39.84;98612.69;6281144;22;20702;-85
2022/01/28 06:43:38;;;;;;;3.60;3.13;;;;;;;18.02;39.68;98602.41;6306669;22;20178;-83
2022/01/28 06:46:05;;;;;;;4.47;3.07;;;;;;;18.05;39.71;98612.78;6280356;22;20648;-82
2022/01/28 06:48:31;;;;;;;3.60;3.30;;;;;;;18.03;39.84;98612.69;6332205;22;20174;-82
2022/01/28 06:50:58;;;;;;;3.73;3.00;;;;;;;18.11;39.11;98631.84;6280225;22;20197;-83
2022/01/28 06:53:25;;;;;;;4.63;3.03;;;;;;;17.75;38.75;98588.03;6280377;22;20205;-82
2022/01/28 06:55:51;;;;;;;3.57;3.07;;;;;;;17.91;38.98;98601.78;6305624;22;20556;-83
2022/01/28 06:58:18;;;;;;;3.50;3.20;;;;;;;17.99;39.16;98622.59;6305760;22;20206;-82
2022/01/28 07:00:44;;;;;;;4.13;3.13;;;;;;;18.00;39.01;98625.22;6280381;22;20206;-82
2022/01/28 07:03:12;;;;;;;5.10;3.57;;;;;;;18.12;39.07;98638.69;6279135;22;20181;-82
2022/01/28 07:05:39;;;;;;;3.90;3.30;;;;;;;18.15;39.49;98651.59;6280370;22;20181;-82
2022/01/28 07:08:06;;;;;;;4.13;3.17;;;;;;;18.03;39.86;98639.81;6334071;22;20198;-82
2022/01/28 07:10:35;;;;;;;3.80;3.10;;;;;;;18.03;40.11;98644.91;6302717;22;20205;-81
2022/01/28 07:13:01;;;;;;;4.13;3.10;;;;;;;18.11;40.50;98652.19;6304595;22;20209;-81
2022/01/28 07:15:28;;;;;;;4.60;3.10;;;;;;;18.18;40.67;98668.72;6323105;22;20165;-88
2022/01/28 07:17:57;;;;;;;3.93;2.93;;;;;;;17.91;40.65;98629.75;6338565;22;20174;-88
2022/01/28 07:20:25;;;;;;;4.27;2.97;;;;;;;16.62;41.08;98379.44;6339137;22;20143;-89
2022/01/28 07:39:06;;;;;;;2.63;2.10;;;;;;;17.64;41.47;98578.88;6257037;22;20243;-84
2022/01/28 07:41:34;;;;;;;3.27;2.37;;;;;;;18.03;41.11;98650.84;6252820;22;20178;-83
2022/01/28 07:44:07;;;;;;;2.70;2.30;;;;;;;18.14;41.35;98657.47;6257490;22;20161;-83
2022/01/28 07:46:34;;;;;;;3.20;2.40;;;;;;;18.24;41.76;98676.72;6303552;22;20657;-83
2022/01/28 07:49:01;;;;;;;3.07;2.47;;;;;;;18.36;41.70;98715.63;6265177;22;20163;-89
2022/01/28 07:51:29;;;;;;;2.73;2.43;;;;;;;17.59;41.36;98570.97;6287881;22;20260;-89
2022/01/28 07:53:58;;;;;;;2.43;2.23;;;;;;;15.80;41.42;98284.56;6287833;22;20147;-88
2022/01/28 07:56:25;;;;;;;2.50;2.30;;;;;;;16.78;41.60;98423.63;6311108;22;20167;-89
2022/01/28 07:58:56;;;;;;;5.07;2.47;;;;;;;17.55;41.78;98546.16;6314524;22;20142;-89
2022/01/28 08:01:23;;;;;;;2.40;2.20;;;;;;;16.89;41.71;98449.66;6312299;22;20173;-89
2022/01/28 08:03:50;;;;;;;2.90;2.00;;;;;;;16.46;41.37;98390.28;6312577;22;20158;-89
2022/01/28 08:06:17;;;;;;;2.83;2.53;;;;;;;16.03;41.65;98315.69;6311570;22;20163;-88
2022/01/28 08:43:42;;;;;;;2.20;2.00;;;;;;;18.10;41.65;98670.81;6283876;22;20237;-84
2022/01/28 08:46:09;;;;;;;2.90;2.00;;;;;;;17.95;41.39;98639.31;6255121;22;20232;-82
2022/01/28 08:48:36;;;;;;;2.43;1.90;;;;;;;18.32;41.49;98713.66;6255090;22;20178;-82
2022/01/28 08:51:03;;;;;;;2.20;1.80;;;;;;;18.40;41.54;98715.06;6255288;22;20158;-81
2022/01/28 08:53:29;;;;;;;2.43;1.90;;;;;;;18.40;41.66;98714.16;6254429;22;20274;-83
2022/01/28 08:55:56;;;;;;;2.27;2.00;;;;;;;18.64;41.86;98780.16;6256029;22;20276;-83
2022/01/28 08:58:23;;;;;;;2.10;1.90;;;;;;;18.48;41.76;98757.13;6281512;22;20296;-83
2022/01/28 09:00:51;;;;;;;1.90;1.80;;;;;;;18.38;41.54;98736.97;6256095;22;20270;-83
2022/01/28 09:03:19;;;;;;;2.47;2.07;;;;;;;18.64;41.76;98769.97;6254118;22;20241;-83
2022/01/28 09:05:45;;;;;;;2.10;1.87;;;;;;;18.53;41.73;98762.50;6304413;22;20253;-82
2022/01/28 09:08:12;;;;;;;2.17;1.97;;;;;;;18.11;41.85;98685.25;6254439;22;20218;-83
2022/01/28 09:10:57;;;;;;;2.13;1.93;;;;;;;18.48;41.39;98754.59;6279936;22;20239;-83
2022/01/28 09:13:26;;;;;;;2.10;1.90;;;;;;;18.39;41.80;98725.13;6261080;22;20154;-83
2022/01/28 09:15:54;;;;;;;2.33;2.00;;;;;;;18.37;41.66;98732.69;6281641;22;20220;-84
2022/01/28 09:18:22;;;;;;;1.93;1.83;;;;;;;18.46;41.63;98739.97;6280056;22;20190;-83
2022/01/28 09:20:49;;;;;;;1.80;1.70;;;;;;;18.48;41.82;98748.59;6280176;22;20197;-83
2022/01/28 09:23:15;;;;;;;1.97;1.77;;;;;;;18.46;41.74;98745.06;6280796;22;20178;-83
2022/01/28 09:25:42;;;;;;;2.40;1.80;;;;;;;18.55;41.23;98763.44;6253603;22;20198;-84
2022/01/28 09:28:09;;;;;;;5.97;2.40;;;;;;;18.51;41.41;98748.78;6253201;22;20300;-83
2022/01/28 09:30:36;;;;;;;3.93;2.87;;;;;;;18.37;41.39;98725.03;6331550;22;20744;-84
2022/01/28 09:33:03;;;;;;;3.80;2.50;;;;;;;18.34;41.36;98724.81;6277859;22;20206;-82
2022/01/28 09:35:29;;;;;;;2.17;2.07;;;;;;;18.45;41.86;98751.84;6252041;22;20217;-83
2022/01/28 09:37:56;;;;;;;2.30;2.10;;;;;;;18.45;41.48;98756.06;6252498;22;20595;-84
2022/01/28 09:40:22;;;;;;;2.60;2.37;;;;;;;18.38;41.79;98743.75;6276853;22;20174;-83
2022/01/28 09:42:52;;;;;;;3.20;2.23;;;;;;;18.43;41.61;98748.31;6279822;22;20186;-83
2022/01/28 09:45:23;;;;;;;3.20;2.10;;;;;;;18.26;41.70;98726.00;6279123;22;20193;-83
2022/01/28 09:47:55;;;;;;;2.60;2.20;;;;;;;18.26;41.98;98726.00;6280612;22;20251;-83
2022/01/28 09:50:22;;;;;;;2.53;2.33;;;;;;;18.37;42.11;98747.94;6305579;22;20575;-83
2022/01/28 10:52:12;;;;;;;2.07;1.83;;;;;;;17.61;42.26;98649.88;6226129;22;21096;-85
2022/01/28 10:54:41;;;;;;;2.37;1.80;;;;;;;17.85;42.45;98692.94;6256733;22;20186;-84
2022/01/28 10:57:08;;;;;;;2.63;1.90;;;;;;;18.31;42.37;98780.63;6282815;22;20600;-83
2022/01/28 10:59:40;;;;;;;1.90;1.50;;;;;;;18.27;42.61;98782.88;6282110;22;20193;-87
2022/01/28 11:02:07;;;;;;;1.77;1.63;;;;;;;18.26;42.12;98782.00;6256150;22;20185;-85
2022/01/28 11:04:33;;;;;;;1.70;1.50;;;;;;;18.48;42.38;98819.88;6255310;22;20253;-85
2022/01/28 11:07:01;;;;;;;2.80;1.60;;;;;;;18.04;42.41;98733.13;6255046;22;20236;-87
2022/01/28 11:09:29;;;;;;;1.80;1.70;;;;;;;18.38;42.25;98797.19;6282052;22;20547;-87
2022/01/28 11:11:56;;;;;;;1.87;1.70;;;;;;;18.67;42.26;98856.75;6283207;22;20170;-87
2022/01/28 11:14:22;;;;;;;2.03;1.80;;;;;;;18.38;42.40;98789.56;6257356;22;20174;-87
2022/01/28 11:16:49;;;;;;;1.63;1.53;;;;;;;18.45;42.52;98807.84;6257059;22;20190;-87
2022/01/28 11:19:17;;;;;;;1.70;1.60;;;;;;;18.45;42.29;98812.94;6257431;22;20220;-87
2022/01/28 11:22:08;;;;;;;1.80;1.70;;;;;;;18.69;42.37;98854.28;6282576;22;20162;-88
2022/01/28 11:24:59;;;;;;;2.40;2.00;;;;;;;18.68;42.60;98845.75;6307130;22;20502;-87
2022/01/28 11:27:36;;;;;;;2.00;1.80;;;;;;;18.69;42.10;98856.84;6306533;22;20190;-85
2022/01/28 11:30:25;;;;;;;1.90;1.80;;;;;;;18.68;42.13;98857.63;6280727;22;20234;-87
2022/01/28 11:33:00;;;;;;;1.60;1.50;;;;;;;18.67;41.98;98848.22;6334163;22;20155;-87
2022/01/28 11:35:53;;;;;;;1.77;1.57;;;;;;;18.67;42.08;98860.94;6282878;22;20248;-87
2022/01/28 11:38:26;;;;;;;1.60;1.50;;;;;;;18.67;42.22;98850.75;6326865;22;20269;-87
2022/01/28 11:40:56;;;;;;;1.80;1.70;;;;;;;18.65;42.13;98837.06;6308318;22;20170;-86
2022/01/28 11:43:24;;;;;;;1.77;1.67;;;;;;;18.54;42.58;98827.88;6308368;22;20237;-85
2022/01/28 11:46:08;;;;;;;2.00;1.80;;;;;;;18.37;42.62;98796.31;6283398;22;20178;-86
2022/01/28 11:48:55;;;;;;;2.03;1.83;;;;;;;18.63;42.60;98849.72;6283410;22;20703;-85
2022/01/28 11:51:23;;;;;;;1.87;1.70;;;;;;;18.36;42.44;98817.44;6336885;22;20173;-85
2022/01/28 11:54:18;;;;;;;1.60;1.50;;;;;;;18.61;42.39;98851.28;6277979;22;20178;-85
2022/01/28 11:56:55;;;;;;;2.37;1.83;;;;;;;18.60;42.65;98848.63;6307689;22;20201;-84
2022/01/28 11:59:26;;;;;;;1.60;1.50;;;;;;;18.44;42.66;98825.56;6333800;22;20238;-87
2022/01/28 12:01:52;;;;;;;1.50;1.40;;;;;;;18.59;42.56;98845.19;6279570;22;20237;-87
2022/01/28 12:04:25;;;;;;;1.93;1.80;;;;;;;18.58;42.40;98857.84;6332301;22;20661;-85
2022/01/28 12:07:15;;;;;;;2.00;1.80;;;;;;;18.37;42.63;98813.19;6329606;22;20736;-86
2022/01/28 12:09:44;;;;;;;2.50;1.60;;;;;;;18.18;42.48;98784.06;6307000;22;20190;-84
2022/01/28 12:12:12;;;;;;;1.70;1.60;;;;;;;18.43;42.38;98832.31;6305461;22;20211;-85
2022/01/28 12:15:08;;;;;;;1.70;1.60;;;;;;;17.95;42.55;98763.09;6309625;22;20174;-86
2022/01/28 12:17:36;;;;;;;2.30;1.67;;;;;;;18.28;42.56;98818.59;6334581;22;20238;-85
2022/01/28 12:20:36;;;;;;;1.80;1.63;;;;;;;18.41;42.73;98855.94;6310771;22;20178;-87
2022/01/28 12:23:24;;;;;;;1.77;1.67;;;;;;;14.99;42.68;98259.81;6253936;22;20713;-80
2022/01/28 12:25:54;;;;;;;2.37;1.63;;;;;;;17.40;43.26;98677.34;6277416;22;20302;-79
2022/01/28 12:28:33;;;;;;;1.97;1.70;;;;;;;18.51;42.87;98864.22;6221445;22;20230;-79
2022/01/28 12:30:59;;;;;;;2.03;1.83;;;;;;;18.51;42.89;98864.22;6300110;22;20218;-84
2022/01/28 12:33:29;;;;;;;1.87;1.60;;;;;;;18.45;42.67;98860.41;6272676;22;20273;-80
2022/01/28 12:35:57;;;;;;;2.03;1.60;;;;;;;18.49;43.00;98860.69;6272722;22;20209;-80
2022/01/28 12:38:28;;;;;;;1.77;1.67;;;;;;;17.76;42.62;98740.69;6301005;22;20174;-82
2022/01/28 12:41:07;;;;;;;1.73;1.63;;;;;;;18.34;42.72;98834.25;6251244;22;20266;-81
2022/01/28 12:43:36;;;;;;;1.50;1.40;;;;;;;17.90;42.70;98762.78;6253434;22;20597;-80
2022/01/28 12:46:08;;;;;;;1.80;1.70;;;;;;;18.50;42.58;98859.91;6274832;22;20202;-80
2022/01/28 12:48:35;;;;;;;3.10;1.70;;;;;;;17.21;42.73;98643.94;6301117;22;20199;-79
2022/01/28 12:51:02;;;;;;;3.63;2.00;;;;;;;16.35;42.51;98497.78;6222730;22;20689;-79
2022/01/28 12:53:39;;;;;;;4.03;2.00;;;;;;;16.16;42.54;98464.38;6272758;22;20230;-80
2022/01/28 12:56:07;;;;;;;2.53;2.00;;;;;;;17.30;42.30;98653.78;6273930;22;20265;-79
2022/01/28 12:58:35;;;;;;;1.77;1.60;;;;;;;16.98;42.39;98592.44;6247976;22;20277;-81
2022/01/28 13:01:12;;;;;;;2.33;1.50;;;;;;;17.54;42.66;98694.38;6247972;22;20175;-80
2022/01/28 13:03:52;;;;;;;2.37;1.80;;;;;;;12.42;42.35;97790.91;6273782;22;20194;-80
2022/01/28 13:09:01;;;;;;;9.70;5.60;;;;;;;15.58;38.88;98350.75;6251061;22;20239;-80
2022/01/28 13:11:28;;;;;;;8.13;5.17;;;;;;;18.43;38.26;98852.69;6248680;22;20182;-80
2022/01/28 13:13:55;;;;;;;8.23;4.80;;;;;;;17.79;38.23;98747.63;6272709;22;20252;-80
2022/01/28 13:16:36;;;;;;;7.63;4.07;;;;;;;16.39;38.31;98510.78;6272726;22;20184;-79
2022/01/28 13:19:04;;;;;;;5.73;3.90;;;;;;;17.69;38.77;98750.38;6273752;22;20175;-80
2022/01/28 13:21:32;;;;;;;5.63;3.70;;;;;;;17.12;38.64;98650.97;6248513;22;20248;-80
2022/01/28 13:24:10;;;;;;;8.23;4.03;;;;;;;14.49;39.72;98213.44;6249097;22;20207;-80
2022/01/28 13:26:51;;;;;;;6.83;3.93;;;;;;;16.36;39.79;98528.31;6249099;22;20162;-80
2022/01/28 13:29:18;;;;;;;6.20;3.53;;;;;;;17.57;40.24;98744.50;6278869;22;20574;-79
2022/01/28 13:31:52;;;;;;;4.37;3.43;;;;;;;15.32;40.38;98359.88;6273572;22;20206;-80
2022/01/28 13:34:19;;;;;;;7.23;4.00;;;;;;;17.71;40.55;98779.34;6248571;22;20241;-82
2022/01/28 13:36:47;;;;;;;4.80;3.30;;;;;;;18.30;40.86;98880.69;6225140;22;20271;-79
2022/01/28 13:39:17;;;;;;;4.70;3.37;;;;;;;17.64;41.23;98775.50;6274228;22;20197;-79
2022/01/28 13:41:47;;;;;;;3.90;3.20;;;;;;;16.38;41.36;98553.78;6223845;22;20190;-80
2022/01/28 13:44:24;;;;;;;6.10;3.30;;;;;;;17.47;41.60;98755.75;6223301;22;20508;-80
2022/01/28 13:46:58;;;;;;;3.93;2.93;;;;;;;18.31;41.29;98901.91;6223142;22;20178;-81
2022/01/28 13:49:29;;;;;;;4.27;3.00;;;;;;;17.67;41.77;98793.50;6247640;22;20179;-81
2022/01/28 13:52:26;;;;;;;4.67;2.90;;;;;;;17.74;41.45;98798.19;6247824;22;20162;-81
2022/01/28 13:54:53;;;;;;;3.13;2.70;;;;;;;16.31;41.82;98561.75;6251130;22;20246;-82
2022/01/28 13:57:26;;;;;;;5.07;3.17;;;;;;;18.31;41.96;98878.97;6221536;22;20174;-80
2022/01/28 14:00:00;;;;;;;5.80;2.63;;;;;;;17.67;41.86;98777.34;6248538;22;20242;-81
2022/01/28 14:02:26;;;;;;;3.70;2.97;;;;;;;17.44;41.80;98726.72;6223432;22;20669;-82
2022/01/28 14:04:53;;;;;;;3.60;3.00;;;;;;;16.94;41.82;98636.19;6246059;22;20658;-81
2022/01/28 14:07:23;;;;;;;5.50;2.97;;;;;;;17.31;41.97;98696.19;6271811;22;20548;-81
2022/01/28 14:10:01;;;;;;;3.93;2.83;;;;;;;17.54;41.94;98745.22;6221754;22;20186;-81
2022/01/28 14:12:39;;;;;;;4.07;2.80;;;;;;;18.34;42.08;98889.34;6222580;22;20763;-80
2022/01/28 14:15:31;;;;;;;3.30;2.53;;;;;;;18.34;41.88;98886.81;6298986;22;20510;-82
2022/01/28 14:18:01;;;;;;;3.70;2.90;;;;;;;17.71;42.00;98781.88;6255474;22;20159;-82
2022/01/28 14:20:28;;;;;;;3.10;2.43;;;;;;;17.95;42.27;98835.16;6248907;22;20205;-81
2022/01/28 14:22:55;;;;;;;3.63;2.70;;;;;;;18.34;42.45;98897.88;6221346;22;20206;-79
2022/01/28 14:25:21;;;;;;;4.67;2.73;;;;;;;18.05;42.25;98846.81;6300421;22;20185;-81
2022/01/28 14:30:36;;;;;;;3.73;2.90;;;;;;;15.68;42.07;98431.66;6276775;22;20166;-82
2022/01/28 14:33:03;;;;;;;3.57;2.67;;;;;;;17.32;42.50;98736.94;6248325;22;20198;-82
2022/01/28 14:35:30;;;;;;;3.43;2.63;;;;;;;17.16;42.31;98721.50;6246316;22;20178;-80
2022/01/28 14:37:56;;;;;;;2.90;2.47;;;;;;;17.75;42.46;98801.63;6222766;22;20216;-80
2022/01/28 14:40:23;;;;;;;3.80;2.40;;;;;;;16.03;42.34;98564.16;6247344;22;20171;-80
2022/01/28 14:42:49;;;;;;;3.53;2.33;;;;;;;18.32;42.50;98918.94;6246643;22;20451;-81
2022/01/28 14:45:16;;;;;;;3.73;2.50;;;;;;;17.78;42.06;98835.75;6246575;22;20643;-80
2022/01/28 14:47:48;;;;;;;3.47;2.57;;;;;;;18.37;42.42;98930.28;6225545;22;20703;-80
2022/01/28 14:50:15;;;;;;;3.20;2.37;;;;;;;16.61;42.41;98629.78;6299270;22;20232;-82
2022/01/28 14:52:41;;;;;;;2.23;2.03;;;;;;;17.22;42.49;98728.63;6247121;22;20266;-81
2022/01/28 14:55:08;;;;;;;2.43;2.23;;;;;;;17.85;42.71;98842.09;6246734;22;20242;-81
2022/01/28 14:57:35;;;;;;;3.73;2.63;;;;;;;18.04;42.78;98880.66;6272387;22;20179;-81
2022/01/28 15:00:02;;;;;;;3.27;2.50;;;;;;;17.38;42.26;98780.53;6246667;22;20198;-81
2022/01/28 15:02:30;;;;;;;3.30;2.47;;;;;;;17.82;42.66;98858.06;6221942;22;20226;-81
2022/01/28 15:05:00;;;;;;;3.07;2.33;;;;;;;17.71;42.35;98827.63;6272768;22;20213;-79
2022/01/28 15:07:28;;;;;;;2.73;2.43;;;;;;;17.27;42.64;98755.22;6246438;22;20249;-81
2022/01/28 15:09:57;;;;;;;2.67;2.33;;;;;;;17.69;42.35;98819.91;6247120;22;20258;-80
2022/01/28 15:12:24;;;;;;;3.10;2.20;;;;;;;17.35;42.66;98761.69;6247628;22;20237;-81
2022/01/28 15:14:50;;;;;;;2.60;2.33;;;;;;;17.98;42.36;98893.88;6246377;22;20167;-82
2022/01/28 15:17:18;;;;;;;2.03;1.90;;;;;;;17.39;42.55;98759.44;6247709;22;20190;-81
2022/01/28 15:19:46;;;;;;;2.50;2.20;;;;;;;17.06;42.54;98706.44;6299332;22;20171;-82
2022/01/28 15:22:12;;;;;;;2.90;2.30;;;;;;;17.36;42.59;98758.34;6249431;22;20226;-81
2022/01/28 15:24:39;;;;;;;2.17;1.97;;;;;;;17.34;42.41;98750.63;6277517;22;20232;-80
2022/01/28 15:27:07;;;;;;;3.70;2.40;;;;;;;17.75;42.60;98824.50;6278714;22;20185;-80
2022/01/28 15:29:45;;;;;;;3.07;2.10;;;;;;;15.93;42.37;98505.97;6253062;22;20735;-81
2022/01/28 15:37:33;;;;;;;2.83;2.20;;;;;;;17.62;42.74;98811.78;6282184;22;20558;-81
2022/01/28 15:40:00;;;;;;;4.37;2.10;;;;;;;17.48;42.77;98792.22;6303777;22;20178;-81
2022/01/28 15:42:26;;;;;;;8.80;2.47;;;;;;;17.98;42.96;98904.06;6252415;22;20286;-83
2022/01/28 15:44:53;;;;;;;3.13;2.10;;;;;;;12.82;42.88;97976.03;6253658;22;20699;-82
2022/01/28 15:47:19;;;;;;;5.30;2.27;;;;;;;17.06;43.06;98719.13;6278164;22;20175;-81
2022/01/28 15:49:46;;;;;;;2.40;2.20;;;;;;;17.78;43.33;98861.19;6252716;22;20229;-81
2022/01/28 15:52:13;;;;;;;4.47;1.90;;;;;;;17.76;42.92;98854.22;6252376;22;20232;-81
2022/01/28 15:54:40;;;;;;;2.90;2.27;;;;;;;18.08;43.05;98919.13;6276766;22;20190;-82
2022/01/28 15:57:08;;;;;;;3.43;2.23;;;;;;;18.41;43.37;98978.09;6277160;22;20178;-81
2022/01/28 15:59:39;;;;;;;5.77;2.20;;;;;;;17.04;43.00;98743.53;6279421;22;20158;-83
2022/01/28 16:02:06;;;;;;;5.53;2.50;;;;;;;17.19;42.70;98757.25;6276643;22;20277;-82
2022/01/28 16:04:35;;;;;;;9.93;2.10;;;;;;;15.56;42.91;98478.06;6277349;22;20197;-81
2022/01/28 16:07:01;;;;;;;4.13;2.27;;;;;;;18.37;42.86;98965.91;6252421;22;20174;-83
2022/01/28 16:09:30;;;;;;;7.43;2.60;;;;;;;17.81;42.85;98863.94;6302119;22;20669;-81
2022/01/28 16:11:59;;;;;;;7.87;2.50;;;;;;;17.84;42.94;98871.75;6277438;22;20649;-81
2022/01/28 16:14:32;;;;;;;6.87;2.57;;;;;;;17.41;42.82;98790.88;6252236;22;20212;-82
2022/01/28 16:19:47;;;;;;;4.03;2.30;;;;;;;16.51;42.87;98631.59;6284740;22;20159;-81
2022/01/28 16:22:14;;;;;;;5.13;2.53;;;;;;;17.79;42.89;98862.94;6277994;22;20574;-80
2022/01/28 16:24:41;;;;;;;3.20;2.43;;;;;;;17.30;43.08;98780.81;6277437;22;20262;-81
2022/01/28 16:27:07;;;;;;;2.50;2.00;;;;;;;17.05;42.98;98732.59;6277271;22;20210;-79
2022/01/28 16:29:35;;;;;;;4.27;2.20;;;;;;;18.43;42.83;98968.88;6251989;22;20252;-81
2022/01/28 16:32:02;;;;;;;3.10;2.03;;;;;;;18.44;42.78;98976.63;6301625;22;20713;-80
2022/01/28 16:34:29;;;;;;;3.23;2.20;;;;;;;17.57;42.84;98829.28;6277690;22;20210;-81
2022/01/28 16:37:10;;;;;;;4.07;2.07;;;;;;;17.87;43.32;98886.31;6307654;22;20618;-81
2022/01/28 16:39:39;;;;;;;3.57;2.17;;;;;;;17.85;42.88;98881.13;6278517;22;20181;-84
2022/01/28 16:42:12;;;;;;;3.67;2.20;;;;;;;16.64;42.95;98673.13;6280860;22;20416;-81
2022/01/28 16:44:49;;;;;;;3.17;2.03;;;;;;;18.09;42.32;98928.50;6252836;22;20257;-83
2022/01/28 16:47:16;;;;;;;4.63;2.43;;;;;;;18.43;43.08;98994.34;6283393;22;20162;-81
2022/01/28 16:49:46;;;;;;;2.53;2.00;;;;;;;17.72;42.70;98875.16;6279650;22;20205;-82
2022/01/28 16:52:14;;;;;;;3.00;2.00;;;;;;;17.88;43.04;98905.88;6305177;22;20237;-81